Aguilar, Colorado
Current Conditions -  °F | °C
As of 1:54 PM on Saturday 20 Dec 2014 (Local Time) from KTAD Reporting Station
Clear Clear  
Wind Chill: 50°   Ceiling: Unl
Heat Index: 50°   Visibility: 10mi
Dew Point: 13°   Wind: 8mph
Humidity: 23%   Direction: 150°SSE
Pressure: 29.95"   Gusts: NA
Location:  37.4°N, 104.65°W
Report Text: KTAD 202054Z AUTO 15007KT 10SM CLR 10/M11 A2995 RMK AO2 SLP126 T01001106 56025
Loading
Personal Weather Stations






























Interactive Weather Map New forecast layout! Learn more

10-Day Weather Forecast

Advertisements
Track Severe Weather on mobile